Time;durP1;ratioP1;P1;durP2;ratioP2;P2;SDS_P1;SDS_P2;PMS_P1;PMS_P2;Temp;Humidity;BMP_temperature;BMP_pressure;BME280_temperature;BME280_humidity;BME280_pressure;Samples;Min_cycle;Max_cycle;Signal;HPM_P1;HPM_P2
2023/09/25 00:01:11;;;;;;;11.40;10.00;;;;;;;12.86;100.00;97640.05;111580;1244;23830;-77
2023/09/25 00:03:43;;;;;;;11.80;10.70;;;;;;;12.87;100.00;97645.27;111536;1244;22507;-77
2023/09/25 00:06:12;;;;;;;10.60;9.50;;;;;;;12.86;100.00;97645.05;111548;1244;22494;-78
2023/09/25 00:08:40;;;;;;;10.10;9.10;;;;;;;12.88;100.00;97649.84;111553;1244;22453;-77
2023/09/25 00:11:09;;;;;;;9.70;8.80;;;;;;;12.90;100.00;97653.18;111528;1244;23884;-78
2023/09/25 00:13:40;;;;;;;8.30;7.50;;;;;;;12.91;100.00;97649.98;111506;1244;24018;-77
2023/09/25 00:16:13;;;;;;;8.30;7.50;;;;;;;12.92;100.00;97645.94;111571;1244;22496;-77
2023/09/25 00:18:42;;;;;;;9.10;7.00;;;;;;;12.93;100.00;97649.88;111608;1244;22501;-77
2023/09/25 00:21:11;;;;;;;8.50;7.70;;;;;;;12.93;100.00;97647.74;111570;1244;22526;-77
2023/09/25 00:23:40;;;;;;;8.70;7.00;;;;;;;12.94;100.00;97646.36;111552;1244;22581;-77
2023/09/25 00:26:09;;;;;;;7.20;6.50;;;;;;;12.94;100.00;97645.93;111554;1244;25228;-77
2023/09/25 00:28:42;;;;;;;7.30;6.60;;;;;;;12.95;100.00;97645.25;111583;1244;22485;-77
2023/09/25 00:31:11;;;;;;;6.70;6.10;;;;;;;12.95;100.00;97643.41;111547;1244;25277;-78
2023/09/25 00:33:41;;;;;;;6.40;5.80;;;;;;;12.95;100.00;97642.34;111542;1244;24397;-77
2023/09/25 00:36:09;;;;;;;6.70;6.00;;;;;;;12.95;100.00;97642.87;111537;1244;25435;-77
2023/09/25 00:38:38;;;;;;;5.80;5.30;;;;;;;12.95;100.00;97639.97;111527;1244;22510;-77
2023/09/25 00:41:06;;;;;;;5.30;4.90;;;;;;;12.96;100.00;97639.63;111551;1244;25318;-77
2023/09/25 00:43:35;;;;;;;5.10;4.70;;;;;;;12.96;100.00;97634.30;111521;1238;22501;-77
2023/09/25 00:46:03;;;;;;;4.80;4.40;;;;;;;12.97;100.00;97631.48;111560;1244;23791;-77
2023/09/25 00:48:32;;;;;;;4.50;4.10;;;;;;;12.96;100.00;97624.66;111558;1244;22520;-77
2023/09/25 00:51:03;;;;;;;4.30;3.90;;;;;;;12.96;100.00;97617.05;111569;1244;22531;-77
2023/09/25 00:53:32;;;;;;;5.30;4.20;;;;;;;12.96;100.00;97612.69;111558;1244;24937;-77
2023/09/25 00:56:02;;;;;;;4.40;4.00;;;;;;;12.97;100.00;97605.23;111568;1244;23342;-77
2023/09/25 00:58:30;;;;;;;;;;;;;;;12.97;100.00;97603.84;111591;1244;22475;-77
2023/09/25 01:01:01;;;;;;;4.90;4.20;;;;;;;12.96;100.00;97604.16;111564;1244;22487;-77
2023/09/25 01:03:31;;;;;;;4.90;4.40;;;;;;;12.96;100.00;97609.75;111547;1244;25892;-77
2023/09/25 01:06:04;;;;;;;5.30;4.80;;;;;;;12.95;100.00;97607.58;111600;1241;25283;-77
2023/09/25 01:08:33;;;;;;;5.30;4.70;;;;;;;12.95;100.00;97610.30;111629;1244;25216;-77
2023/09/25 01:11:03;;;;;;;5.40;4.70;;;;;;;12.94;100.00;97612.14;111578;1244;24201;-77
2023/09/25 01:13:31;;;;;;;5.40;4.90;;;;;;;12.96;100.00;97610.98;111520;1244;22532;-77
2023/09/25 01:16:00;;;;;;;4.90;4.50;;;;;;;12.97;100.00;97611.94;111594;1244;22502;-77
2023/09/25 01:18:29;;;;;;;5.30;4.80;;;;;;;12.96;100.00;97610.73;111540;1244;22497;-77
2023/09/25 01:20:58;;;;;;;5.90;5.40;;;;;;;12.98;100.00;97615.61;111572;1244;22497;-77
2023/09/25 01:23:26;;;;;;;6.20;5.60;;;;;;;12.99;100.00;97617.67;111541;1244;22505;-77
2023/09/25 01:25:56;;;;;;;6.90;6.20;;;;;;;13.00;100.00;97620.17;111601;1244;24736;-77
2023/09/25 01:28:29;;;;;;;6.40;5.80;;;;;;;13.00;100.00;97620.77;111562;1244;22583;-77
2023/09/25 01:31:01;;;;;;;6.20;5.60;;;;;;;12.99;100.00;97622.47;111567;1244;22504;-77
2023/09/25 01:33:29;;;;;;;6.10;5.50;;;;;;;13.00;100.00;97624.97;111552;1244;22580;-77
2023/09/25 01:35:58;;;;;;;6.20;5.60;;;;;;;13.01;100.00;97624.70;111592;1244;25247;-77
2023/09/25 01:38:27;;;;;;;7.30;6.60;;;;;;;13.02;100.00;97623.64;111540;1244;22558;-77
2023/09/25 01:40:57;;;;;;;6.50;5.90;;;;;;;13.02;100.00;97621.71;111579;1244;23831;-77
2023/09/25 01:43:25;;;;;;;7.80;7.00;;;;;;;13.03;100.00;97614.20;111562;1244;22463;-76
2023/09/25 01:45:53;;;;;;;7.70;6.90;;;;;;;13.03;100.00;97614.30;111566;1244;22713;-77
2023/09/25 01:48:22;;;;;;;8.30;7.50;;;;;;;13.03;100.00;97612.71;111551;1244;22982;-77
2023/09/25 01:50:52;;;;;;;8.60;7.70;;;;;;;13.03;100.00;97614.48;111572;1244;22498;-77
2023/09/25 01:53:21;;;;;;;9.60;8.00;;;;;;;13.04;100.00;97614.15;111572;1244;22621;-77
2023/09/25 01:55:51;;;;;;;8.90;8.00;;;;;;;13.04;100.00;97609.79;111570;1244;22506;-77
2023/09/25 01:58:20;;;;;;;9.60;8.70;;;;;;;13.05;100.00;97606.31;111593;1244;22516;-77
2023/09/25 02:00:48;;;;;;;9.10;8.00;;;;;;;13.06;100.00;97606.95;111538;1244;25233;-77
2023/09/25 02:03:16;;;;;;;10.00;8.40;;;;;;;13.06;100.00;97609.52;111559;1244;25355;-77
2023/09/25 02:05:45;;;;;;;10.80;9.50;;;;;;;13.06;100.00;97611.80;111610;1244;23863;-77
2023/09/25 02:08:14;;;;;;;9.40;8.50;;;;;;;13.06;100.00;97613.77;111553;1244;23849;-77
2023/09/25 02:10:42;;;;;;;10.90;9.80;;;;;;;13.08;100.00;97612.44;111617;1244;22522;-77
2023/09/25 02:13:10;;;;;;;11.90;10.50;;;;;;;13.08;100.00;97615.15;111568;1244;25378;-77
2023/09/25 02:15:42;;;;;;;12.40;11.10;;;;;;;13.09;100.00;97612.12;111558;1244;22702;-77
2023/09/25 02:18:12;;;;;;;12.70;11.40;;;;;;;13.09;100.00;97610.59;111632;1244;25430;-77
2023/09/25 02:20:42;;;;;;;13.60;12.10;;;;;;;13.09;100.00;97613.71;111564;1244;22504;-77
2023/09/25 02:23:10;;;;;;;14.20;12.60;;;;;;;13.08;100.00;97614.29;111589;1244;25471;-77
2023/09/25 02:25:38;;;;;;;14.10;12.00;;;;;;;13.09;100.00;97616.49;111538;1244;24321;-77
2023/09/25 02:28:07;;;;;;;16.60;12.30;;;;;;;13.10;100.00;97616.17;111580;1244;22610;-77
2023/09/25 02:30:36;;;;;;;17.00;14.50;;;;;;;13.10;100.00;97619.42;111578;1244;22521;-77
2023/09/25 02:33:05;;;;;;;27.70;14.90;;;;;;;13.09;100.00;97620.38;111616;1244;25454;-77
2023/09/25 02:35:33;;;;;;;42.80;15.60;;;;;;;13.09;100.00;97618.79;111577;1244;22478;-77
2023/09/25 02:38:02;;;;;;;24.70;15.40;;;;;;;13.08;100.00;97616.80;111613;1244;25202;-77
2023/09/25 02:40:30;;;;;;;20.60;14.50;;;;;;;13.08;100.00;97616.05;111566;1244;22524;-77
2023/09/25 02:42:59;;;;;;;22.00;14.90;;;;;;;13.08;100.00;97615.36;111560;1244;22686;-77
2023/09/25 02:45:27;;;;;;;24.90;15.10;;;;;;;13.09;100.00;97612.12;111559;1244;24182;-77
2023/09/25 02:47:55;;;;;;;35.20;16.80;;;;;;;13.09;100.00;97609.58;111593;1244;25044;-77
2023/09/25 02:50:24;;;;;;;22.90;16.20;;;;;;;13.10;100.00;97612.14;111552;1244;22753;-77
2023/09/25 02:52:55;;;;;;;31.20;16.40;;;;;;;13.11;100.00;97618.89;111592;1244;27119;-77
2023/09/25 02:55:23;;;;;;;25.90;16.70;;;;;;;13.10;100.00;97615.97;111565;1244;22583;-77
2023/09/25 02:57:51;;;;;;;23.30;16.70;;;;;;;13.12;100.00;97615.75;111572;1244;22631;-77
2023/09/25 03:00:22;;;;;;;22.90;16.70;;;;;;;13.14;100.00;97611.70;111572;1244;22507;-77
2023/09/25 03:02:50;;;;;;;22.50;16.40;;;;;;;13.14;100.00;97616.53;111575;1228;22513;-77
2023/09/25 03:05:20;;;;;;;25.90;17.80;;;;;;;13.16;100.00;97619.62;111614;1244;22524;-77
2023/09/25 03:07:51;;;;;;;30.70;19.30;;;;;;;13.16;100.00;97619.35;111631;1244;26419;-77
2023/09/25 03:10:22;;;;;;;27.10;17.50;;;;;;;13.18;100.00;97621.81;111625;1244;22501;-77
2023/09/25 03:12:53;;;;;;;27.60;19.10;;;;;;;13.18;100.00;97619.42;111621;1244;22498;-77
2023/09/25 03:15:24;;;;;;;38.10;20.00;;;;;;;13.20;100.00;97626.66;111605;1244;26822;-77
2023/09/25 03:17:53;;;;;;;28.30;19.90;;;;;;;13.20;100.00;97622.92;111652;1244;25524;-78
2023/09/25 03:20:24;;;;;;;31.70;19.70;;;;;;;13.21;100.00;97620.41;111628;1244;22550;-77
2023/09/25 03:22:54;;;;;;;32.50;20.70;;;;;;;13.22;100.00;97615.31;111644;1244;22933;-77
2023/09/25 03:25:24;;;;;;;41.80;20.80;;;;;;;13.24;100.00;97612.66;109686;1244;2525375;-78
2023/09/25 03:27:53;;;;;;;37.40;21.90;;;;;;;13.25;100.00;97615.64;111648;1242;24271;-78
2023/09/25 03:30:22;;;;;;;40.10;21.10;;;;;;;13.26;100.00;97618.35;111596;1244;24131;-77
2023/09/25 03:32:54;;;;;;;43.30;22.50;;;;;;;13.27;100.00;97612.38;111639;1244;23715;-77
2023/09/25 03:35:25;;;;;;;38.80;21.80;;;;;;;13.27;100.00;97614.88;111617;1235;23301;-77
2023/09/25 03:37:54;;;;;;;34.60;22.60;;;;;;;13.29;100.00;97616.80;111608;1244;24227;-77
2023/09/25 03:40:26;;;;;;;29.50;22.10;;;;;;;13.29;100.00;97610.67;111598;1244;25398;-77
2023/09/25 03:42:58;;;;;;;33.10;21.10;;;;;;;13.29;100.00;97617.75;111641;1244;22495;-78
2023/09/25 03:45:31;;;;;;;32.20;21.90;;;;;;;13.29;100.00;97617.60;111626;1244;22497;-78
2023/09/25 03:48:00;;;;;;;29.80;22.10;;;;;;;13.30;100.00;97621.84;111604;1244;22594;-77
2023/09/25 03:50:28;;;;;;;32.90;21.70;;;;;;;13.31;100.00;97624.88;111588;1244;22555;-77
2023/09/25 03:53:01;;;;;;;34.90;22.00;;;;;;;13.32;100.00;97625.83;111617;1244;22478;-78
2023/09/25 03:55:29;;;;;;;38.30;24.00;;;;;;;13.33;100.00;97625.56;111610;1244;22676;-77
2023/09/25 03:57:58;;;;;;;38.50;22.50;;;;;;;13.33;100.00;97627.10;111646;1244;25226;-77
2023/09/25 04:00:28;;;;;;;34.50;22.70;;;;;;;13.35;100.00;97625.61;111610;1244;23769;-77
2023/09/25 04:02:56;;;;;;;42.50;24.10;;;;;;;13.36;100.00;97625.23;111637;1244;22605;-77
2023/09/25 04:05:29;;;;;;;31.90;22.40;;;;;;;13.38;100.00;97627.96;111602;1244;22531;-78
2023/09/25 04:07:58;;;;;;;33.90;22.40;;;;;;;13.39;100.00;97626.20;111628;1244;22579;-77
2023/09/25 04:10:27;;;;;;;30.90;22.90;;;;;;;13.40;100.00;97630.88;111647;1244;22530;-77
2023/09/25 04:12:55;;;;;;;35.50;22.70;;;;;;;13.41;100.00;97628.05;111621;1244;23213;-77
2023/09/25 04:15:24;;;;;;;32.90;23.50;;;;;;;13.40;100.00;97624.54;111607;1244;22606;-77
2023/09/25 04:17:57;;;;;;;35.80;22.80;;;;;;;13.42;100.00;97632.58;111625;1244;22483;-77
2023/09/25 04:20:26;;;;;;;44.70;23.80;;;;;;;13.43;100.00;97632.64;111609;1244;25406;-77
2023/09/25 04:22:57;;;;;;;36.60;23.40;;;;;;;13.43;100.00;97628.80;111631;1244;22592;-78
2023/09/25 04:25:27;;;;;;;66.70;26.10;;;;;;;13.45;100.00;97634.54;111594;1244;22518;-77
2023/09/25 04:27:58;;;;;;;59.00;25.20;;;;;;;13.44;100.00;97641.04;111648;1244;25395;-77
2023/09/25 04:30:30;;;;;;;39.20;24.60;;;;;;;13.43;100.00;97644.56;111660;1244;22631;-77
2023/09/25 04:33:02;;;;;;;52.90;25.40;;;;;;;13.45;100.00;97647.11;111629;1244;22647;-78
2023/09/25 04:35:30;;;;;;;35.50;25.10;;;;;;;13.45;100.00;97652.44;111602;1244;22521;-77
2023/09/25 04:38:00;;;;;;;35.30;25.40;;;;;;;13.46;100.00;97649.45;111629;1244;22514;-77
2023/09/25 04:40:30;;;;;;;56.60;24.90;;;;;;;13.48;100.00;97654.08;111696;1244;24037;-77
2023/09/25 04:43:00;;;;;;;48.90;26.70;;;;;;;13.48;100.00;97659.50;111625;1244;22519;-77
2023/09/25 04:45:29;;;;;;;40.30;26.90;;;;;;;13.48;100.00;97661.86;111600;1244;22508;-77
2023/09/25 04:47:58;;;;;;;38.70;25.70;;;;;;;13.48;100.00;97657.91;111605;1244;22564;-77
2023/09/25 04:50:29;;;;;;;36.00;26.10;;;;;;;13.50;100.00;97666.70;111595;1244;25368;-78
2023/09/25 04:53:00;;;;;;;32.30;24.00;;;;;;;13.50;100.00;97664.41;111613;1244;22507;-78
2023/09/25 04:55:29;;;;;;;33.30;24.20;;;;;;;13.52;100.00;97664.16;111587;1244;24181;-77
2023/09/25 04:57:57;;;;;;;35.10;25.90;;;;;;;13.53;100.00;97665.74;111618;1244;22494;-77
2023/09/25 05:00:27;;;;;;;35.70;25.20;;;;;;;13.54;100.00;97670.00;111605;1244;22495;-77
2023/09/25 05:02:56;;;;;;;;;;;;;;;13.55;100.00;97672.72;111602;1244;22653;-77
2023/09/25 05:05:28;;;;;;;34.50;24.20;;;;;;;13.57;100.00;97670.20;111657;1244;22546;-78
2023/09/25 05:07:59;;;;;;;36.80;26.00;;;;;;;13.58;100.00;97670.94;111681;1244;22481;-78
2023/09/25 05:10:29;;;;;;;45.50;27.30;;;;;;;13.58;100.00;97669.17;111615;1244;22527;-78
2023/09/25 05:13:00;;;;;;;39.70;27.40;;;;;;;13.58;100.00;97665.52;111608;1244;22481;-78
2023/09/25 05:15:31;;;;;;;42.30;27.70;;;;;;;13.58;100.00;97656.29;111571;1244;25347;-77
2023/09/25 05:18:00;;;;;;;37.20;27.50;;;;;;;13.59;100.00;97655.91;111591;1244;24101;-77
2023/09/25 05:20:29;;;;;;;39.30;26.90;;;;;;;13.62;100.00;97657.07;111619;1244;22609;-78
2023/09/25 05:22:58;;;;;;;36.50;26.40;;;;;;;13.64;100.00;97649.70;111606;1244;25815;-77
2023/09/25 05:25:27;;;;;;;;;;;;;;;13.68;100.00;97647.95;111589;1244;22572;-78
2023/09/25 05:28:00;;;;;;;36.90;27.00;;;;;;;13.71;100.00;97649.05;111600;1244;25238;-77
2023/09/25 05:30:29;;;;;;;35.40;27.60;;;;;;;13.74;100.00;97649.25;111629;1244;22627;-77
2023/09/25 05:32:59;;;;;;;42.90;30.80;;;;;;;13.76;100.00;97657.13;111588;1244;24682;-77
2023/09/25 05:35:28;;;;;;;54.40;38.00;;;;;;;13.75;100.00;97658.89;111570;1244;22512;-78
2023/09/25 05:37:56;;;;;;;;;;;;;;;13.74;100.00;97655.54;111651;1244;22582;-78
2023/09/25 05:40:27;;;;;;;42.10;29.70;;;;;;;13.75;100.00;97659.70;111612;1244;22509;-78
2023/09/25 05:42:56;;;;;;;38.00;27.50;;;;;;;13.77;100.00;97668.42;111573;1244;23479;-77
2023/09/25 05:45:27;;;;;;;38.10;28.00;;;;;;;13.80;100.00;97667.41;111604;1244;22880;-77
2023/09/25 05:47:55;;;;;;;40.80;28.60;;;;;;;13.83;100.00;97672.20;111628;1244;22897;-78
2023/09/25 05:50:26;;;;;;;37.60;28.00;;;;;;;13.84;100.00;97670.32;111642;1244;25368;-77
2023/09/25 05:52:54;;;;;;;38.10;27.30;;;;;;;13.85;100.00;97668.14;111611;1244;23042;-77
2023/09/25 05:55:23;;;;;;;37.30;27.40;;;;;;;13.86;100.00;97662.05;111618;1244;22500;-77
2023/09/25 05:57:51;;;;;;;37.90;27.10;;;;;;;13.88;100.00;97655.74;111610;1244;23833;-77
2023/09/25 06:00:22;;;;;;;44.90;30.10;;;;;;;13.91;100.00;97659.36;111635;1244;22506;-77
2023/09/25 06:02:50;;;;;;;35.80;26.90;;;;;;;13.93;100.00;97652.79;111603;1244;22573;-77
2023/09/25 06:05:19;;;;;;;40.10;30.00;;;;;;;13.94;100.00;97644.00;111635;1244;22479;-77
2023/09/25 06:07:47;;;;;;;39.00;28.10;;;;;;;13.96;100.00;97645.65;111662;1244;22458;-77
2023/09/25 06:10:18;;;;;;;38.20;27.60;;;;;;;13.96;100.00;97641.64;111566;1244;24168;-77
2023/09/25 06:12:47;;;;;;;39.70;28.60;;;;;;;13.99;100.00;97642.70;111295;1230;22537;-77
2023/09/25 06:15:16;;;;;;;68.70;31.40;;;;;;;14.00;100.00;97642.85;111460;1244;22515;-77
2023/09/25 06:17:45;;;;;;;61.00;32.40;;;;;;;14.01;100.00;97648.23;111562;1235;22503;-77
2023/09/25 06:20:15;;;;;;;56.50;33.80;;;;;;;14.03;100.00;97644.16;111629;1244;22502;-77
2023/09/25 06:22:47;;;;;;;78.30;34.30;;;;;;;14.05;100.00;97646.02;111665;1244;25226;-78
2023/09/25 06:25:17;;;;;;;56.60;35.20;;;;;;;14.07;100.00;97649.20;111581;1244;23805;-77
2023/09/25 06:27:46;;;;;;;74.50;36.00;;;;;;;14.08;100.00;97651.61;111587;1231;22506;-77
2023/09/25 06:30:16;;;;;;;74.60;36.00;;;;;;;14.09;100.00;97653.11;111617;1244;22495;-77
2023/09/25 06:32:44;;;;;;;50.80;34.50;;;;;;;14.08;100.00;97655.23;111648;1244;22495;-77
2023/09/25 06:35:15;;;;;;;45.00;34.90;;;;;;;14.08;100.00;97655.14;111553;1244;22457;-77
2023/09/25 06:37:43;;;;;;;52.50;34.30;;;;;;;14.09;100.00;97656.03;111613;1244;22508;-77
2023/09/25 06:40:15;;;;;;;52.70;34.80;;;;;;;14.11;100.00;97651.91;111623;1244;22598;-77
2023/09/25 06:42:46;;;;;;;44.20;35.40;;;;;;;14.14;100.00;97659.36;111663;1244;22498;-77
2023/09/25 06:45:14;;;;;;;44.50;34.10;;;;;;;14.16;100.00;97665.80;111576;1244;22519;-77
2023/09/25 06:47:43;;;;;;;44.10;34.60;;;;;;;14.19;100.00;97670.30;111620;1244;22496;-77
2023/09/25 06:50:12;;;;;;;42.50;33.50;;;;;;;14.19;100.00;97668.50;111616;1244;23426;-77
2023/09/25 06:52:45;;;;;;;41.40;30.80;;;;;;;14.19;100.00;97678.20;111619;1231;22543;-77
2023/09/25 06:55:13;;;;;;;36.10;28.50;;;;;;;14.20;100.00;97673.34;111563;1244;26300;-78
2023/09/25 06:57:41;;;;;;;35.10;27.90;;;;;;;14.22;100.00;97674.84;111530;1244;22492;-77
2023/09/25 07:00:13;;;;;;;38.10;29.50;;;;;;;14.24;100.00;97676.38;111582;1244;22534;-77
2023/09/25 07:02:42;;;;;;;35.50;27.00;;;;;;;14.23;100.00;97674.95;111627;1244;22718;-77
2023/09/25 07:05:13;;;;;;;33.40;27.30;;;;;;;14.24;100.00;97677.45;111606;1244;24828;-78
2023/09/25 07:07:43;;;;;;;34.70;26.50;;;;;;;14.26;100.00;97673.65;111609;1236;22508;-77
2023/09/25 07:10:12;;;;;;;35.10;27.80;;;;;;;14.30;100.00;97677.77;111635;1244;25393;-77
2023/09/25 07:12:41;;;;;;;35.00;26.40;;;;;;;14.34;100.00;97675.30;111633;1244;22505;-77
2023/09/25 07:15:11;;;;;;;34.50;26.40;;;;;;;14.38;100.00;97670.64;111567;1244;22716;-77
2023/09/25 07:17:40;;;;;;;35.40;27.00;;;;;;;14.46;100.00;97669.70;111613;1244;22555;-77
2023/09/25 07:20:10;;;;;;;38.90;27.50;;;;;;;14.58;100.00;97672.08;111603;1244;22487;-77
2023/09/25 07:22:42;;;;;;;43.30;30.50;;;;;;;14.67;100.00;97667.92;111672;1244;22544;-77
2023/09/25 07:25:13;;;;;;;40.30;27.70;;;;;;;14.73;100.00;97671.61;111586;1244;22518;-77
2023/09/25 07:27:42;;;;;;;37.50;26.60;;;;;;;14.78;100.00;97668.52;111614;1244;22515;-77
2023/09/25 07:30:12;;;;;;;34.60;25.60;;;;;;;14.81;100.00;97666.91;111623;1244;22512;-77
2023/09/25 07:32:42;;;;;;;31.90;24.50;;;;;;;14.83;100.00;97672.48;111666;1244;22552;-77
2023/09/25 07:35:15;;;;;;;37.50;25.80;;;;;;;14.82;100.00;97676.98;111652;1244;25259;-77
2023/09/25 07:37:47;;;;;;;31.80;23.10;;;;;;;14.82;100.00;97680.13;111682;1244;22485;-78
2023/09/25 07:40:20;;;;;;;35.50;26.30;;;;;;;14.82;100.00;97684.30;111661;1244;267710;-77
2023/09/25 07:42:50;;;;;;;31.20;24.90;;;;;;;14.86;100.00;97680.89;111838;1244;22499;-77
2023/09/25 07:45:24;;;;;;;30.20;24.80;;;;;;;14.89;100.00;97683.33;111810;1244;52094;-78
2023/09/25 07:47:57;;;;;;;30.80;25.20;;;;;;;14.91;100.00;97686.19;111838;1244;26586;-77
2023/09/25 07:50:40;;;;;;;29.60;25.10;;;;;;;14.91;100.00;97686.14;111822;1244;22520;-73
2023/09/25 07:53:11;;;;;;;28.20;23.10;;;;;;;14.88;100.00;97682.96;111894;1243;22624;-72
2023/09/25 07:55:41;;;;;;;26.70;23.60;;;;;;;14.88;100.00;97683.55;111794;1244;23266;-73
2023/09/25 07:58:11;;;;;;;31.90;25.50;;;;;;;14.86;100.00;97685.86;111868;1244;22618;-73
2023/09/25 08:00:44;;;;;;;32.60;25.20;;;;;;;14.84;100.00;97688.77;111832;1244;25400;-73
2023/09/25 08:03:15;;;;;;;27.50;22.30;;;;;;;14.83;100.00;97693.73;111851;1244;22526;-72
2023/09/25 08:05:45;;;;;;;26.80;23.90;;;;;;;14.81;100.00;97696.53;111882;1244;22507;-73
2023/09/25 08:08:15;;;;;;;39.50;35.30;;;;;;;14.81;100.00;97700.17;111790;1244;23651;-73
2023/09/25 08:10:45;;;;;;;;;;;;;;;14.81;100.00;97703.26;111859;1244;22476;-73
2023/09/25 08:13:18;;;;;;;22.10;19.00;;;;;;;14.83;100.00;97696.89;111848;1238;23769;-73
2023/09/25 08:15:47;;;;;;;24.70;20.10;;;;;;;14.84;100.00;97698.23;111829;1244;55096;-72
2023/09/25 08:18:16;;;;;;;25.10;20.90;;;;;;;14.87;100.00;97697.77;111521;1244;24180;-73
2023/09/25 08:20:45;;;;;;;20.70;18.20;;;;;;;14.89;100.00;97701.69;111496;1244;23721;-72
2023/09/25 08:23:13;;;;;;;;;;;;;;;14.92;100.00;97704.30;111635;1244;22456;-72
2023/09/25 08:25:41;;;;;;;21.60;17.10;;;;;;;14.95;100.00;97703.27;111514;1244;22482;-73
2023/09/25 08:28:10;;;;;;;19.20;16.30;;;;;;;15.00;100.00;97699.05;111356;1244;25945;-72
2023/09/25 08:30:41;;;;;;;19.80;16.00;;;;;;;15.06;100.00;97699.59;111319;1244;23018;-73
2023/09/25 08:33:10;;;;;;;21.10;16.70;;;;;;;15.12;100.00;97697.83;111485;1244;22478;-73
2023/09/25 08:35:42;;;;;;;16.00;13.80;;;;;;;15.23;100.00;97691.70;111496;1244;22984;-73
2023/09/25 08:38:11;;;;;;;18.10;15.20;;;;;;;15.35;100.00;97686.30;111507;1244;24179;-74
2023/09/25 08:40:48;;;;;;;20.00;14.90;;;;;;;15.44;100.00;97683.05;111587;1244;22518;-73
2023/09/25 08:43:21;;;;;;;19.90;15.80;;;;;;;15.57;100.00;97687.90;111583;1244;22512;-74
2023/09/25 08:45:52;;;;;;;18.30;14.30;;;;;;;15.67;100.00;97688.77;111601;1244;24107;-73
2023/09/25 08:48:20;;;;;;;16.20;12.20;;;;;;;15.74;100.00;97686.50;111594;1244;22508;-72
2023/09/25 08:50:53;;;;;;;13.80;12.30;;;;;;;15.79;100.00;97688.38;111608;1244;22495;-73
2023/09/25 08:53:22;;;;;;;13.00;10.70;;;;;;;15.83;100.00;97689.40;111659;1244;22502;-73
2023/09/25 08:55:52;;;;;;;11.80;10.50;;;;;;;15.85;100.00;97689.11;111524;1244;24249;-73
2023/09/25 08:58:23;;;;;;;13.40;9.40;;;;;;;15.86;100.00;97684.65;111587;1244;22545;-73
2023/09/25 09:00:53;;;;;;;13.40;10.90;;;;;;;15.89;100.00;97683.70;111590;1244;22689;-72
2023/09/25 09:03:21;;;;;;;10.70;9.00;;;;;;;15.93;100.00;97680.41;111632;1244;22541;-73
2023/09/25 09:05:51;;;;;;;10.00;9.00;;;;;;;15.97;100.00;97676.23;111584;1244;25400;-73
2023/09/25 09:08:20;;;;;;;12.70;9.30;;;;;;;16.01;100.00;97668.46;111590;1244;24284;-73
2023/09/25 09:10:49;;;;;;;9.70;8.70;;;;;;;16.08;100.00;97664.86;111623;1244;22600;-73
2023/09/25 09:13:23;;;;;;;11.70;9.00;;;;;;;16.17;100.00;97663.62;111587;1244;22495;-73
2023/09/25 09:15:52;;;;;;;10.30;9.20;;;;;;;16.33;100.00;97656.02;111632;1244;22662;-74
2023/09/25 09:18:23;;;;;;;10.30;9.00;;;;;;;16.47;100.00;97656.83;111029;1244;22523;-75
2023/09/25 09:20:52;;;;;;;10.30;9.20;;;;;;;16.55;100.00;97658.09;111498;1244;22530;-75
2023/09/25 09:23:21;;;;;;;10.20;8.70;;;;;;;16.65;100.00;97664.27;111681;1244;22504;-74
2023/09/25 09:25:51;;;;;;;9.40;7.90;;;;;;;16.66;100.00;97666.20;111574;1244;27690;-73
2023/09/25 09:28:22;;;;;;;10.70;8.60;;;;;;;16.65;100.00;97668.61;111537;1241;24166;-74
2023/09/25 09:30:56;;;;;;;9.40;8.30;;;;;;;16.71;100.00;97662.70;111583;1244;22530;-74
2023/09/25 09:33:29;;;;;;;8.90;7.70;;;;;;;16.75;100.00;97665.86;111577;1244;23792;-74
2023/09/25 09:36:00;;;;;;;10.60;8.70;;;;;;;16.76;100.00;97664.11;111598;1244;22504;-74
2023/09/25 09:38:29;;;;;;;10.20;8.20;;;;;;;16.78;100.00;97666.08;111520;1244;22713;-74
2023/09/25 09:40:57;;;;;;;9.50;8.10;;;;;;;16.76;100.00;97666.16;111587;1244;22548;-75
2023/09/25 09:43:26;;;;;;;9.90;8.20;;;;;;;16.78;100.00;97668.59;111553;1243;22548;-75
2023/09/25 09:45:54;;;;;;;9.20;8.00;;;;;;;16.76;100.00;97669.44;111636;1244;22534;-75
2023/09/25 09:48:24;;;;;;;10.10;8.10;;;;;;;16.77;100.00;97671.35;111570;1244;25682;-75
2023/09/25 09:50:59;;;;;;;9.80;7.40;;;;;;;16.82;100.00;97673.09;111581;1244;22496;-75
2023/09/25 09:53:33;;;;;;;11.00;8.40;;;;;;;16.97;100.00;97673.80;111610;1242;22499;-76
2023/09/25 09:56:05;;;;;;;10.00;7.90;;;;;;;17.03;100.00;97671.23;111632;1244;22496;-75
2023/09/25 09:58:39;;;;;;;10.90;9.70;;;;;;;17.09;100.00;97673.23;111580;1244;22545;-75
2023/09/25 10:01:10;;;;;;;11.10;8.60;;;;;;;17.13;100.00;97673.00;111613;1244;24224;-74
2023/09/25 10:03:41;;;;;;;10.80;8.90;;;;;;;17.14;100.00;97673.67;111578;1244;25532;-75
2023/09/25 10:06:11;;;;;;;12.30;9.60;;;;;;;17.11;100.00;97675.18;111580;1244;22653;-75
2023/09/25 10:08:58;;;;;;;12.60;8.80;;;;;;;17.06;100.00;97677.52;111598;1244;22511;-74
2023/09/25 10:11:27;;;;;;;12.30;8.40;;;;;;;17.05;100.00;97674.02;111617;1244;22520;-74
2023/09/25 10:13:59;;;;;;;12.30;8.90;;;;;;;17.07;100.00;97670.76;111582;1244;22592;-75
2023/09/25 10:16:30;;;;;;;9.70;7.80;;;;;;;17.05;100.00;97669.66;111620;1244;22512;-75
2023/09/25 10:18:58;;;;;;;11.60;8.60;;;;;;;17.01;100.00;97665.91;111625;1244;22515;-75
2023/09/25 10:21:27;;;;;;;10.20;8.40;;;;;;;17.05;100.00;97662.59;111611;1244;26790;-75
2023/09/25 10:23:57;;;;;;;12.20;9.30;;;;;;;17.09;100.00;97661.98;111572;1244;25878;-75
2023/09/25 10:26:28;;;;;;;8.60;7.10;;;;;;;17.10;100.00;97656.55;111500;1244;22548;-75
2023/09/25 10:29:14;;;;;;;8.50;7.60;;;;;;;17.12;100.00;97653.89;111510;1244;22515;-75
2023/09/25 10:31:47;;;;;;;10.10;7.90;;;;;;;17.07;100.00;97657.41;111728;1244;24195;-76
2023/09/25 10:34:16;;;;;;;10.60;7.60;;;;;;;17.03;100.00;97655.13;111640;1244;25213;-76
2023/09/25 10:36:50;;;;;;;11.20;8.50;;;;;;;17.08;100.00;97653.21;111631;1239;22682;-76
2023/09/25 10:39:19;;;;;;;12.20;8.30;;;;;;;17.16;100.00;97658.42;111660;1244;22507;-76
2023/09/25 10:42:01;;;;;;;10.70;8.60;;;;;;;17.19;100.00;97658.16;111587;1244;23910;-75
2023/09/25 10:44:30;;;;;;;12.60;9.10;;;;;;;17.19;100.00;97659.77;111610;1244;25376;-75
2023/09/25 10:47:05;;;;;;;11.00;8.50;;;;;;;17.22;100.00;97661.43;111531;1244;22495;-75
2023/09/25 10:49:36;;;;;;;10.20;8.30;;;;;;;17.22;100.00;97665.13;111581;1244;22743;-74
2023/09/25 10:52:04;;;;;;;;;;;;;;;17.27;100.00;97661.63;111643;1244;22475;-75
2023/09/25 10:54:34;;;;;;;13.40;9.20;;;;;;;17.30;100.00;97659.30;111576;1244;22499;-75
2023/09/25 10:57:07;;;;;;;11.00;9.10;;;;;;;17.30;100.00;97662.13;111588;1244;24110;-75
2023/09/25 10:59:35;;;;;;;9.40;8.40;;;;;;;17.28;100.00;97668.02;111602;1244;22525;-75
2023/09/25 11:02:04;;;;;;;14.00;9.50;;;;;;;17.24;100.00;97670.09;111607;1244;22757;-75
2023/09/25 11:04:32;;;;;;;12.00;9.90;;;;;;;17.25;100.00;97670.96;111559;1244;22471;-75
2023/09/25 11:07:03;;;;;;;14.70;10.00;;;;;;;17.27;100.00;97668.78;111603;1244;22519;-75
2023/09/25 11:09:31;;;;;;;10.50;9.50;;;;;;;17.30;100.00;97667.86;111562;1232;22502;-75
2023/09/25 11:12:00;;;;;;;14.90;11.50;;;;;;;17.33;100.00;97662.91;111561;1244;23763;-75
2023/09/25 11:14:39;;;;;;;13.60;10.80;;;;;;;17.34;100.00;97665.58;111583;1244;23790;-75
2023/09/25 11:17:09;;;;;;;;;;;;;;;17.35;100.00;97663.51;111613;1244;22479;-75
2023/09/25 11:19:38;;;;;;;13.40;10.80;;;;;;;17.34;100.00;97661.50;111596;1244;23779;-75
2023/09/25 11:22:09;;;;;;;15.50;10.80;;;;;;;17.29;100.00;97663.82;111583;1244;22616;-75